Terminal Aerodrome Forecast
Issued by NWS

Home | Current Version | Previous Version | Text Only | Print | Product List | Glossary On
Versions: 1 2 3 4 5 6 7 8 9 10 11 12 13 14 15 16 17 18 19 20 21 22 23 24 25 26 27 28 29 30 31 32 33 34 35 36 37 38 39
660
FTUS44 KEWX 221147 AAA
TAFSSF
TAF AMD
KSSF 221147Z 2212/2312 02005KT 3SM BR VCSH OVC007
     FM221700 03005KT 3SM BR VCSH OVC005
     FM230500 05004KT 1SM -SHRA BR OVC003=

USA.gov is the U.S. government's official web portal to all federal, state and local government web resources and services.